sensor_id;sensor_type;location;lat;lon;timestamp;P1;durP1;ratioP1;P2;durP2;ratioP2
80425;SDS011;69766;51.476;5.704;2023-06-22T00:00:55;10.40;;;6.03;;
80425;SDS011;69766;51.476;5.704;2023-06-22T00:03:22;9.75;;;6.35;;
80425;SDS011;69766;51.476;5.704;2023-06-22T00:05:49;11.07;;;7.07;;
80425;SDS011;69766;51.476;5.704;2023-06-22T00:08:16;10.13;;;6.88;;
80425;SDS011;69766;51.476;5.704;2023-06-22T00:10:43;10.20;;;6.13;;
80425;SDS011;69766;51.476;5.704;2023-06-22T00:13:09;10.63;;;7.07;;
80425;SDS011;69766;51.476;5.704;2023-06-22T00:15:36;9.98;;;7.00;;
80425;SDS011;69766;51.476;5.704;2023-06-22T00:18:04;12.52;;;7.72;;
80425;SDS011;69766;51.476;5.704;2023-06-22T00:20:31;11.80;;;6.60;;
80425;SDS011;69766;51.476;5.704;2023-06-22T00:22:58;12.30;;;7.00;;
80425;SDS011;69766;51.476;5.704;2023-06-22T00:25:24;11.32;;;7.10;;
80425;SDS011;69766;51.476;5.704;2023-06-22T00:27:50;9.80;;;6.70;;
80425;SDS011;69766;51.476;5.704;2023-06-22T00:30:16;12.57;;;7.70;;
80425;SDS011;69766;51.476;5.704;2023-06-22T00:32:43;11.02;;;6.90;;
80425;SDS011;69766;51.476;5.704;2023-06-22T00:35:09;11.23;;;7.45;;
80425;SDS011;69766;51.476;5.704;2023-06-22T00:37:35;10.60;;;7.63;;
80425;SDS011;69766;51.476;5.704;2023-06-22T00:40:02;12.80;;;7.60;;
80425;SDS011;69766;51.476;5.704;2023-06-22T00:42:29;13.10;;;8.23;;
80425;SDS011;69766;51.476;5.704;2023-06-22T00:44:55;12.32;;;7.57;;
80425;SDS011;69766;51.476;5.704;2023-06-22T00:47:21;14.85;;;7.63;;
80425;SDS011;69766;51.476;5.704;2023-06-22T00:49:47;12.68;;;7.75;;
80425;SDS011;69766;51.476;5.704;2023-06-22T00:52:18;13.13;;;8.45;;
80425;SDS011;69766;51.476;5.704;2023-06-22T00:54:50;14.07;;;8.68;;
80425;SDS011;69766;51.476;5.704;2023-06-22T00:57:17;14.35;;;9.18;;
80425;SDS011;69766;51.476;5.704;2023-06-22T00:59:43;15.02;;;8.93;;
80425;SDS011;69766;51.476;5.704;2023-06-22T01:02:10;13.18;;;8.25;;
80425;SDS011;69766;51.476;5.704;2023-06-22T01:04:36;15.60;;;9.23;;
80425;SDS011;69766;51.476;5.704;2023-06-22T01:07:06;16.10;;;9.20;;
80425;SDS011;69766;51.476;5.704;2023-06-22T01:12:27;14.60;;;9.57;;
80425;SDS011;69766;51.476;5.704;2023-06-22T01:15:02;15.97;;;9.63;;
80425;SDS011;69766;51.476;5.704;2023-06-22T01:17:35;17.02;;;11.27;;
80425;SDS011;69766;51.476;5.704;2023-06-22T01:20:05;15.85;;;10.00;;
80425;SDS011;69766;51.476;5.704;2023-06-22T01:22:33;19.35;;;10.35;;
80425;SDS011;69766;51.476;5.704;2023-06-22T01:25:28;17.48;;;11.13;;
80425;SDS011;69766;51.476;5.704;2023-06-22T01:28:23;18.67;;;11.40;;
80425;SDS011;69766;51.476;5.704;2023-06-22T01:31:06;15.30;;;10.83;;
80425;SDS011;69766;51.476;5.704;2023-06-22T01:33:34;17.90;;;10.82;;
80425;SDS011;69766;51.476;5.704;2023-06-22T01:36:02;19.23;;;11.85;;
80425;SDS011;69766;51.476;5.704;2023-06-22T01:38:29;17.60;;;11.80;;
80425;SDS011;69766;51.476;5.704;2023-06-22T01:40:57;18.10;;;11.75;;
80425;SDS011;69766;51.476;5.704;2023-06-22T01:43:24;17.25;;;11.75;;
80425;SDS011;69766;51.476;5.704;2023-06-22T01:45:51;17.38;;;12.25;;
80425;SDS011;69766;51.476;5.704;2023-06-22T01:48:18;19.17;;;12.15;;
80425;SDS011;69766;51.476;5.704;2023-06-22T01:50:45;15.73;;;11.07;;
80425;SDS011;69766;51.476;5.704;2023-06-22T01:53:11;19.17;;;12.48;;
80425;SDS011;69766;51.476;5.704;2023-06-22T01:55:36;19.08;;;11.02;;
80425;SDS011;69766;51.476;5.704;2023-06-22T01:58:02;18.08;;;11.57;;
80425;SDS011;69766;51.476;5.704;2023-06-22T02:00:28;19.55;;;11.73;;
80425;SDS011;69766;51.476;5.704;2023-06-22T02:03:01;16.60;;;11.57;;
80425;SDS011;69766;51.476;5.704;2023-06-22T02:05:43;18.45;;;11.98;;
80425;SDS011;69766;51.476;5.704;2023-06-22T02:10:50;17.67;;;12.40;;
80425;SDS011;69766;51.476;5.704;2023-06-22T02:13:17;20.60;;;12.57;;
80425;SDS011;69766;51.476;5.704;2023-06-22T02:15:45;21.23;;;11.73;;
80425;SDS011;69766;51.476;5.704;2023-06-22T02:18:12;19.58;;;12.35;;
80425;SDS011;69766;51.476;5.704;2023-06-22T02:20:39;20.63;;;12.43;;
80425;SDS011;69766;51.476;5.704;2023-06-22T02:23:05;18.65;;;11.93;;
80425;SDS011;69766;51.476;5.704;2023-06-22T02:25:32;19.08;;;12.25;;
80425;SDS011;69766;51.476;5.704;2023-06-22T02:27:58;22.02;;;13.25;;
80425;SDS011;69766;51.476;5.704;2023-06-22T02:30:24;19.02;;;11.95;;
80425;SDS011;69766;51.476;5.704;2023-06-22T02:32:49;18.02;;;12.00;;
80425;SDS011;69766;51.476;5.704;2023-06-22T02:35:23;18.40;;;12.55;;
80425;SDS011;69766;51.476;5.704;2023-06-22T02:37:50;19.15;;;12.90;;
80425;SDS011;69766;51.476;5.704;2023-06-22T02:40:16;20.40;;;12.52;;
80425;SDS011;69766;51.476;5.704;2023-06-22T02:42:42;21.83;;;13.35;;
80425;SDS011;69766;51.476;5.704;2023-06-22T02:45:08;20.42;;;13.98;;
80425;SDS011;69766;51.476;5.704;2023-06-22T02:47:34;20.92;;;13.98;;
80425;SDS011;69766;51.476;5.704;2023-06-22T02:50:00;22.52;;;13.07;;
80425;SDS011;69766;51.476;5.704;2023-06-22T02:52:26;22.80;;;13.20;;
80425;SDS011;69766;51.476;5.704;2023-06-22T02:54:52;21.05;;;12.52;;
80425;SDS011;69766;51.476;5.704;2023-06-22T02:57:17;20.65;;;13.68;;
80425;SDS011;69766;51.476;5.704;2023-06-22T02:59:43;21.70;;;13.80;;
80425;SDS011;69766;51.476;5.704;2023-06-22T03:02:08;19.65;;;13.80;;
80425;SDS011;69766;51.476;5.704;2023-06-22T03:04:35;19.75;;;12.88;;
80425;SDS011;69766;51.476;5.704;2023-06-22T03:07:01;19.48;;;12.38;;
80425;SDS011;69766;51.476;5.704;2023-06-22T03:09:27;24.33;;;13.35;;
80425;SDS011;69766;51.476;5.704;2023-06-22T03:11:54;23.52;;;13.70;;
80425;SDS011;69766;51.476;5.704;2023-06-22T03:14:20;24.55;;;13.43;;
80425;SDS011;69766;51.476;5.704;2023-06-22T03:16:45;19.92;;;13.27;;
80425;SDS011;69766;51.476;5.704;2023-06-22T03:19:11;19.05;;;12.98;;
80425;SDS011;69766;51.476;5.704;2023-06-22T03:21:37;19.95;;;12.50;;
80425;SDS011;69766;51.476;5.704;2023-06-22T03:24:04;19.52;;;12.38;;
80425;SDS011;69766;51.476;5.704;2023-06-22T03:26:30;18.75;;;12.35;;
80425;SDS011;69766;51.476;5.704;2023-06-22T03:28:56;19.65;;;12.45;;
80425;SDS011;69766;51.476;5.704;2023-06-22T03:31:21;17.48;;;11.88;;
80425;SDS011;69766;51.476;5.704;2023-06-22T03:33:48;19.27;;;13.10;;
80425;SDS011;69766;51.476;5.704;2023-06-22T03:36:17;19.73;;;12.90;;
80425;SDS011;69766;51.476;5.704;2023-06-22T03:38:46;20.90;;;12.68;;
80425;SDS011;69766;51.476;5.704;2023-06-22T03:41:12;22.45;;;13.82;;
80425;SDS011;69766;51.476;5.704;2023-06-22T03:43:38;20.48;;;13.70;;
80425;SDS011;69766;51.476;5.704;2023-06-22T03:46:04;22.48;;;14.02;;
80425;SDS011;69766;51.476;5.704;2023-06-22T03:48:30;19.95;;;13.82;;
80425;SDS011;69766;51.476;5.704;2023-06-22T03:50:56;23.30;;;13.13;;
80425;SDS011;69766;51.476;5.704;2023-06-22T03:53:21;21.83;;;13.65;;
80425;SDS011;69766;51.476;5.704;2023-06-22T03:55:47;18.60;;;12.98;;
80425;SDS011;69766;51.476;5.704;2023-06-22T03:58:15;22.33;;;13.73;;
80425;SDS011;69766;51.476;5.704;2023-06-22T04:00:41;20.45;;;13.40;;
80425;SDS011;69766;51.476;5.704;2023-06-22T04:03:07;20.33;;;13.20;;
80425;SDS011;69766;51.476;5.704;2023-06-22T04:05:33;19.13;;;12.88;;
80425;SDS011;69766;51.476;5.704;2023-06-22T04:07:58;20.73;;;13.55;;
80425;SDS011;69766;51.476;5.704;2023-06-22T04:10:24;20.02;;;12.65;;
80425;SDS011;69766;51.476;5.704;2023-06-22T04:12:49;18.27;;;12.52;;
80425;SDS011;69766;51.476;5.704;2023-06-22T04:15:15;19.40;;;12.98;;
80425;SDS011;69766;51.476;5.704;2023-06-22T04:17:41;20.00;;;12.07;;
80425;SDS011;69766;51.476;5.704;2023-06-22T04:20:06;19.27;;;12.85;;
80425;SDS011;69766;51.476;5.704;2023-06-22T04:22:33;18.95;;;13.25;;
80425;SDS011;69766;51.476;5.704;2023-06-22T04:24:58;20.38;;;12.98;;
80425;SDS011;69766;51.476;5.704;2023-06-22T04:27:24;18.63;;;13.20;;
80425;SDS011;69766;51.476;5.704;2023-06-22T04:29:49;18.15;;;12.45;;
80425;SDS011;69766;51.476;5.704;2023-06-22T04:32:16;20.00;;;12.77;;
80425;SDS011;69766;51.476;5.704;2023-06-22T04:34:42;20.75;;;13.68;;
80425;SDS011;69766;51.476;5.704;2023-06-22T04:37:08;20.55;;;13.23;;
80425;SDS011;69766;51.476;5.704;2023-06-22T04:39:34;20.50;;;13.23;;
80425;SDS011;69766;51.476;5.704;2023-06-22T04:41:59;18.20;;;12.75;;
80425;SDS011;69766;51.476;5.704;2023-06-22T04:44:25;17.95;;;12.38;;
80425;SDS011;69766;51.476;5.704;2023-06-22T04:46:58;18.38;;;12.07;;
80425;SDS011;69766;51.476;5.704;2023-06-22T04:49:28;19.05;;;13.52;;
80425;SDS011;69766;51.476;5.704;2023-06-22T04:52:03;18.30;;;12.93;;
80425;SDS011;69766;51.476;5.704;2023-06-22T04:54:30;19.15;;;13.27;;
80425;SDS011;69766;51.476;5.704;2023-06-22T04:57:01;21.20;;;13.07;;
80425;SDS011;69766;51.476;5.704;2023-06-22T04:59:29;18.65;;;12.98;;
80425;SDS011;69766;51.476;5.704;2023-06-22T05:01:56;19.42;;;13.60;;
80425;SDS011;69766;51.476;5.704;2023-06-22T05:04:22;21.20;;;14.40;;
80425;SDS011;69766;51.476;5.704;2023-06-22T05:06:49;19.77;;;13.40;;
80425;SDS011;69766;51.476;5.704;2023-06-22T05:09:15;20.30;;;14.38;;
80425;SDS011;69766;51.476;5.704;2023-06-22T05:11:42;21.00;;;14.00;;
80425;SDS011;69766;51.476;5.704;2023-06-22T05:14:08;21.77;;;14.35;;
80425;SDS011;69766;51.476;5.704;2023-06-22T05:16:33;22.40;;;13.57;;
80425;SDS011;69766;51.476;5.704;2023-06-22T05:18:59;21.83;;;14.25;;
80425;SDS011;69766;51.476;5.704;2023-06-22T05:21:28;19.20;;;13.60;;
80425;SDS011;69766;51.476;5.704;2023-06-22T05:23:54;24.05;;;13.95;;
80425;SDS011;69766;51.476;5.704;2023-06-22T05:26:21;21.08;;;14.88;;
80425;SDS011;69766;51.476;5.704;2023-06-22T05:28:47;26.60;;;16.17;;
80425;SDS011;69766;51.476;5.704;2023-06-22T05:31:13;20.98;;;15.13;;
80425;SDS011;69766;51.476;5.704;2023-06-22T05:33:40;21.92;;;15.98;;
80425;SDS011;69766;51.476;5.704;2023-06-22T05:36:09;25.02;;;16.20;;
80425;SDS011;69766;51.476;5.704;2023-06-22T05:38:35;25.75;;;15.77;;
80425;SDS011;69766;51.476;5.704;2023-06-22T05:41:01;22.08;;;15.60;;
80425;SDS011;69766;51.476;5.704;2023-06-22T05:43:27;25.48;;;16.48;;
80425;SDS011;69766;51.476;5.704;2023-06-22T05:45:53;22.92;;;15.75;;
80425;SDS011;69766;51.476;5.704;2023-06-22T05:48:18;26.85;;;17.20;;
80425;SDS011;69766;51.476;5.704;2023-06-22T05:50:44;24.38;;;16.40;;
80425;SDS011;69766;51.476;5.704;2023-06-22T05:53:10;27.13;;;17.02;;
80425;SDS011;69766;51.476;5.704;2023-06-22T05:55:36;27.20;;;17.33;;
80425;SDS011;69766;51.476;5.704;2023-06-22T05:58:01;27.70;;;17.80;;
80425;SDS011;69766;51.476;5.704;2023-06-22T06:00:28;22.95;;;16.30;;
80425;SDS011;69766;51.476;5.704;2023-06-22T06:02:54;25.58;;;16.88;;
80425;SDS011;69766;51.476;5.704;2023-06-22T06:05:20;28.58;;;17.45;;
80425;SDS011;69766;51.476;5.704;2023-06-22T06:07:45;23.05;;;15.88;;
80425;SDS011;69766;51.476;5.704;2023-06-22T06:10:11;22.50;;;16.15;;
80425;SDS011;69766;51.476;5.704;2023-06-22T06:12:37;24.60;;;16.73;;
80425;SDS011;69766;51.476;5.704;2023-06-22T06:15:03;24.02;;;16.88;;
80425;SDS011;69766;51.476;5.704;2023-06-22T06:17:30;25.13;;;17.20;;
80425;SDS011;69766;51.476;5.704;2023-06-22T06:19:56;25.48;;;17.40;;
80425;SDS011;69766;51.476;5.704;2023-06-22T06:22:21;23.88;;;17.55;;
80425;SDS011;69766;51.476;5.704;2023-06-22T06:24:48;24.55;;;17.15;;
80425;SDS011;69766;51.476;5.704;2023-06-22T06:27:14;25.05;;;17.30;;
80425;SDS011;69766;51.476;5.704;2023-06-22T06:29:40;24.02;;;16.80;;
80425;SDS011;69766;51.476;5.704;2023-06-22T06:32:05;22.23;;;16.05;;
80425;SDS011;69766;51.476;5.704;2023-06-22T06:34:31;27.13;;;17.17;;
80425;SDS011;69766;51.476;5.704;2023-06-22T06:36:57;23.35;;;15.30;;
80425;SDS011;69766;51.476;5.704;2023-06-22T06:39:23;26.42;;;16.30;;
80425;SDS011;69766;51.476;5.704;2023-06-22T06:41:49;23.83;;;15.60;;
80425;SDS011;69766;51.476;5.704;2023-06-22T06:44:14;22.30;;;16.65;;
80425;SDS011;69766;51.476;5.704;2023-06-22T06:46:40;24.33;;;16.02;;
80425;SDS011;69766;51.476;5.704;2023-06-22T06:49:07;21.27;;;16.42;;
80425;SDS011;69766;51.476;5.704;2023-06-22T06:51:32;23.38;;;16.48;;
80425;SDS011;69766;51.476;5.704;2023-06-22T06:53:58;24.73;;;17.90;;
80425;SDS011;69766;51.476;5.704;2023-06-22T06:56:23;24.77;;;17.15;;
80425;SDS011;69766;51.476;5.704;2023-06-22T06:58:49;23.50;;;16.70;;
80425;SDS011;69766;51.476;5.704;2023-06-22T07:01:15;25.05;;;16.80;;
80425;SDS011;69766;51.476;5.704;2023-06-22T07:03:41;22.88;;;16.52;;
80425;SDS011;69766;51.476;5.704;2023-06-22T07:06:08;24.05;;;16.73;;
80425;SDS011;69766;51.476;5.704;2023-06-22T07:08:33;27.52;;;18.23;;
80425;SDS011;69766;51.476;5.704;2023-06-22T07:11:01;26.30;;;17.45;;
80425;SDS011;69766;51.476;5.704;2023-06-22T07:13:27;25.38;;;17.58;;
80425;SDS011;69766;51.476;5.704;2023-06-22T07:15:53;25.90;;;18.05;;
80425;SDS011;69766;51.476;5.704;2023-06-22T07:18:19;28.23;;;18.38;;
80425;SDS011;69766;51.476;5.704;2023-06-22T07:20:44;26.98;;;16.35;;
80425;SDS011;69766;51.476;5.704;2023-06-22T07:23:10;23.73;;;17.45;;
80425;SDS011;69766;51.476;5.704;2023-06-22T07:25:35;24.00;;;16.27;;
80425;SDS011;69766;51.476;5.704;2023-06-22T07:28:02;23.45;;;15.70;;
80425;SDS011;69766;51.476;5.704;2023-06-22T07:30:29;30.40;;;18.42;;
80425;SDS011;69766;51.476;5.704;2023-06-22T07:32:56;25.52;;;18.45;;
80425;SDS011;69766;51.476;5.704;2023-06-22T07:35:23;23.95;;;17.40;;
80425;SDS011;69766;51.476;5.704;2023-06-22T07:37:49;23.33;;;16.58;;
80425;SDS011;69766;51.476;5.704;2023-06-22T07:40:14;22.75;;;16.85;;
80425;SDS011;69766;51.476;5.704;2023-06-22T07:42:40;22.75;;;16.50;;
80425;SDS011;69766;51.476;5.704;2023-06-22T07:45:06;25.00;;;16.92;;
80425;SDS011;69766;51.476;5.704;2023-06-22T07:47:33;25.80;;;17.23;;
80425;SDS011;69766;51.476;5.704;2023-06-22T07:50:00;23.40;;;17.10;;
80425;SDS011;69766;51.476;5.704;2023-06-22T07:52:27;23.95;;;17.15;;
80425;SDS011;69766;51.476;5.704;2023-06-22T07:54:53;26.00;;;17.15;;
80425;SDS011;69766;51.476;5.704;2023-06-22T07:57:19;29.20;;;17.45;;
80425;SDS011;69766;51.476;5.704;2023-06-22T07:59:45;25.45;;;17.35;;
80425;SDS011;69766;51.476;5.704;2023-06-22T08:02:11;26.55;;;16.90;;
80425;SDS011;69766;51.476;5.704;2023-06-22T08:04:37;23.98;;;16.23;;
80425;SDS011;69766;51.476;5.704;2023-06-22T08:07:03;23.73;;;15.95;;
80425;SDS011;69766;51.476;5.704;2023-06-22T08:09:29;22.83;;;15.52;;
80425;SDS011;69766;51.476;5.704;2023-06-22T08:11:56;22.58;;;15.77;;
80425;SDS011;69766;51.476;5.704;2023-06-22T08:14:22;24.50;;;17.63;;
80425;SDS011;69766;51.476;5.704;2023-06-22T08:16:51;22.80;;;16.35;;
80425;SDS011;69766;51.476;5.704;2023-06-22T08:19:17;25.42;;;17.70;;
80425;SDS011;69766;51.476;5.704;2023-06-22T08:21:42;29.77;;;17.30;;
80425;SDS011;69766;51.476;5.704;2023-06-22T08:24:08;22.90;;;16.88;;
80425;SDS011;69766;51.476;5.704;2023-06-22T08:26:34;24.40;;;17.20;;
80425;SDS011;69766;51.476;5.704;2023-06-22T08:29:02;22.63;;;17.30;;
80425;SDS011;69766;51.476;5.704;2023-06-22T08:31:30;25.52;;;17.23;;
80425;SDS011;69766;51.476;5.704;2023-06-22T08:33:59;28.25;;;17.58;;
80425;SDS011;69766;51.476;5.704;2023-06-22T08:36:25;22.80;;;17.67;;
80425;SDS011;69766;51.476;5.704;2023-06-22T08:38:54;23.25;;;17.65;;
80425;SDS011;69766;51.476;5.704;2023-06-22T08:41:22;25.52;;;18.38;;
80425;SDS011;69766;51.476;5.704;2023-06-22T08:43:49;28.35;;;19.10;;
80425;SDS011;69766;51.476;5.704;2023-06-22T08:46:14;25.13;;;18.33;;
80425;SDS011;69766;51.476;5.704;2023-06-22T08:48:44;27.25;;;19.92;;
80425;SDS011;69766;51.476;5.704;2023-06-22T08:51:10;23.98;;;18.40;;
80425;SDS011;69766;51.476;5.704;2023-06-22T08:53:36;24.23;;;17.85;;
80425;SDS011;69766;51.476;5.704;2023-06-22T08:56:02;27.35;;;18.92;;
80425;SDS011;69766;51.476;5.704;2023-06-22T08:58:27;24.42;;;17.80;;
80425;SDS011;69766;51.476;5.704;2023-06-22T09:00:53;26.25;;;17.77;;
80425;SDS011;69766;51.476;5.704;2023-06-22T09:03:18;26.77;;;18.00;;
80425;SDS011;69766;51.476;5.704;2023-06-22T09:05:45;26.25;;;17.73;;
80425;SDS011;69766;51.476;5.704;2023-06-22T09:08:11;26.52;;;16.63;;
80425;SDS011;69766;51.476;5.704;2023-06-22T09:10:37;23.20;;;16.83;;
80425;SDS011;69766;51.476;5.704;2023-06-22T09:13:02;23.15;;;16.65;;
80425;SDS011;69766;51.476;5.704;2023-06-22T09:15:28;23.02;;;17.92;;
80425;SDS011;69766;51.476;5.704;2023-06-22T09:17:54;32.20;;;18.00;;
80425;SDS011;69766;51.476;5.704;2023-06-22T09:20:20;24.65;;;17.85;;
80425;SDS011;69766;51.476;5.704;2023-06-22T09:22:45;25.17;;;18.83;;
80425;SDS011;69766;51.476;5.704;2023-06-22T09:25:11;23.83;;;16.52;;
80425;SDS011;69766;51.476;5.704;2023-06-22T09:27:37;24.23;;;16.63;;
80425;SDS011;69766;51.476;5.704;2023-06-22T09:30:03;26.73;;;17.77;;
80425;SDS011;69766;51.476;5.704;2023-06-22T09:32:29;24.10;;;17.30;;
80425;SDS011;69766;51.476;5.704;2023-06-22T09:34:55;27.50;;;18.13;;
80425;SDS011;69766;51.476;5.704;2023-06-22T09:37:20;26.50;;;17.67;;
80425;SDS011;69766;51.476;5.704;2023-06-22T09:39:46;22.25;;;16.30;;
80425;SDS011;69766;51.476;5.704;2023-06-22T09:42:12;21.77;;;15.95;;
80425;SDS011;69766;51.476;5.704;2023-06-22T09:44:38;28.08;;;17.77;;
80425;SDS011;69766;51.476;5.704;2023-06-22T09:47:04;23.52;;;17.13;;
80425;SDS011;69766;51.476;5.704;2023-06-22T09:49:30;22.73;;;16.85;;
80425;SDS011;69766;51.476;5.704;2023-06-22T09:51:57;23.80;;;16.48;;
80425;SDS011;69766;51.476;5.704;2023-06-22T09:54:22;23.38;;;16.50;;
80425;SDS011;69766;51.476;5.704;2023-06-22T09:56:48;22.00;;;16.75;;
80425;SDS011;69766;51.476;5.704;2023-06-22T09:59:14;23.25;;;16.25;;
80425;SDS011;69766;51.476;5.704;2023-06-22T10:01:39;19.70;;;15.25;;
80425;SDS011;69766;51.476;5.704;2023-06-22T10:04:05;21.33;;;15.48;;
80425;SDS011;69766;51.476;5.704;2023-06-22T10:06:31;22.52;;;14.73;;
80425;SDS011;69766;51.476;5.704;2023-06-22T10:08:57;21.92;;;16.00;;
80425;SDS011;69766;51.476;5.704;2023-06-22T10:11:23;18.92;;;15.13;;
80425;SDS011;69766;51.476;5.704;2023-06-22T10:13:54;25.45;;;15.82;;
80425;SDS011;69766;51.476;5.704;2023-06-22T10:16:20;19.33;;;14.13;;
80425;SDS011;69766;51.476;5.704;2023-06-22T10:18:45;21.63;;;14.88;;
80425;SDS011;69766;51.476;5.704;2023-06-22T10:21:11;22.50;;;16.65;;
80425;SDS011;69766;51.476;5.704;2023-06-22T10:23:37;19.98;;;14.82;;
80425;SDS011;69766;51.476;5.704;2023-06-22T10:26:02;17.58;;;13.48;;
80425;SDS011;69766;51.476;5.704;2023-06-22T10:28:28;22.08;;;15.40;;
80425;SDS011;69766;51.476;5.704;2023-06-22T10:30:54;22.13;;;15.85;;
80425;SDS011;69766;51.476;5.704;2023-06-22T10:33:19;19.90;;;15.10;;
80425;SDS011;69766;51.476;5.704;2023-06-22T10:35:45;20.67;;;14.13;;
80425;SDS011;69766;51.476;5.704;2023-06-22T10:38:11;18.83;;;13.65;;
80425;SDS011;69766;51.476;5.704;2023-06-22T10:40:36;19.00;;;14.00;;
80425;SDS011;69766;51.476;5.704;2023-06-22T10:43:04;21.85;;;15.68;;
80425;SDS011;69766;51.476;5.704;2023-06-22T10:45:30;24.27;;;17.13;;
80425;SDS011;69766;51.476;5.704;2023-06-22T10:47:55;27.15;;;19.23;;
80425;SDS011;69766;51.476;5.704;2023-06-22T10:50:21;29.30;;;21.38;;
80425;SDS011;69766;51.476;5.704;2023-06-22T10:52:49;37.25;;;22.63;;
80425;SDS011;69766;51.476;5.704;2023-06-22T10:55:14;35.17;;;24.25;;
80425;SDS011;69766;51.476;5.704;2023-06-22T10:57:40;40.30;;;27.00;;
80425;SDS011;69766;51.476;5.704;2023-06-22T11:00:08;38.17;;;27.10;;
80425;SDS011;69766;51.476;5.704;2023-06-22T11:02:34;42.88;;;27.65;;
80425;SDS011;69766;51.476;5.704;2023-06-22T11:04:59;50.53;;;31.55;;
80425;SDS011;69766;51.476;5.704;2023-06-22T11:07:25;52.65;;;34.22;;
80425;SDS011;69766;51.476;5.704;2023-06-22T11:09:53;56.05;;;36.83;;
80425;SDS011;69766;51.476;5.704;2023-06-22T11:12:22;57.28;;;36.67;;
80425;SDS011;69766;51.476;5.704;2023-06-22T11:21:08;71.97;;;43.15;;
80425;SDS011;69766;51.476;5.704;2023-06-22T11:23:41;74.68;;;44.38;;
80425;SDS011;69766;51.476;5.704;2023-06-22T11:26:30;78.25;;;46.85;;
80425;SDS011;69766;51.476;5.704;2023-06-22T11:29:16;72.40;;;45.35;;
80425;SDS011;69766;51.476;5.704;2023-06-22T11:31:45;77.72;;;47.58;;
80425;SDS011;69766;51.476;5.704;2023-06-22T11:34:10;70.95;;;44.60;;
80425;SDS011;69766;51.476;5.704;2023-06-22T11:39:30;95.53;;;50.80;;
80425;SDS011;69766;51.476;5.704;2023-06-22T11:41:59;93.43;;;52.55;;
80425;SDS011;69766;51.476;5.704;2023-06-22T11:44:34;100.13;;;54.45;;
80425;SDS011;69766;51.476;5.704;2023-06-22T11:47:00;101.43;;;56.33;;
80425;SDS011;69766;51.476;5.704;2023-06-22T11:49:26;103.50;;;57.47;;
80425;SDS011;69766;51.476;5.704;2023-06-22T11:52:01;88.50;;;49.50;;
80425;SDS011;69766;51.476;5.704;2023-06-22T11:54:35;95.63;;;55.75;;
80425;SDS011;69766;51.476;5.704;2023-06-22T11:57:24;65.20;;;41.83;;
80425;SDS011;69766;51.476;5.704;2023-06-22T11:59:53;64.22;;;41.00;;
80425;SDS011;69766;51.476;5.704;2023-06-22T12:02:21;67.03;;;41.05;;
80425;SDS011;69766;51.476;5.704;2023-06-22T12:04:53;69.43;;;42.88;;
80425;SDS011;69766;51.476;5.704;2023-06-22T12:07:30;63.50;;;41.40;;
80425;SDS011;69766;51.476;5.704;2023-06-22T12:09:56;77.75;;;47.28;;
80425;SDS011;69766;51.476;5.704;2023-06-22T12:12:27;61.22;;;40.35;;
80425;SDS011;69766;51.476;5.704;2023-06-22T12:14:55;58.17;;;39.20;;
80425;SDS011;69766;51.476;5.704;2023-06-22T12:17:28;65.80;;;42.67;;
80425;SDS011;69766;51.476;5.704;2023-06-22T12:19:57;64.65;;;42.72;;
80425;SDS011;69766;51.476;5.704;2023-06-22T12:22:26;65.05;;;39.85;;
80425;SDS011;69766;51.476;5.704;2023-06-22T12:31:45;63.28;;;42.95;;
80425;SDS011;69766;51.476;5.704;2023-06-22T12:34:20;65.50;;;42.03;;
80425;SDS011;69766;51.476;5.704;2023-06-22T12:37:12;68.40;;;43.03;;
80425;SDS011;69766;51.476;5.704;2023-06-22T12:39:52;65.32;;;40.90;;
80425;SDS011;69766;51.476;5.704;2023-06-22T12:42:21;68.72;;;43.65;;
80425;SDS011;69766;51.476;5.704;2023-06-22T12:44:49;69.30;;;44.42;;
80425;SDS011;69766;51.476;5.704;2023-06-22T12:47:15;64.10;;;42.58;;
80425;SDS011;69766;51.476;5.704;2023-06-22T12:49:40;59.67;;;41.90;;
80425;SDS011;69766;51.476;5.704;2023-06-22T12:52:09;61.83;;;43.03;;
80425;SDS011;69766;51.476;5.704;2023-06-22T12:54:36;58.47;;;40.90;;
80425;SDS011;69766;51.476;5.704;2023-06-22T12:57:02;56.30;;;40.53;;
80425;SDS011;69766;51.476;5.704;2023-06-22T12:59:37;63.92;;;42.25;;
80425;SDS011;69766;51.476;5.704;2023-06-22T13:02:03;64.25;;;43.97;;
80425;SDS011;69766;51.476;5.704;2023-06-22T13:04:31;64.47;;;44.22;;
80425;SDS011;69766;51.476;5.704;2023-06-22T13:07:03;60.25;;;42.15;;
80425;SDS011;69766;51.476;5.704;2023-06-22T13:09:29;64.75;;;44.90;;
80425;SDS011;69766;51.476;5.704;2023-06-22T13:11:56;56.92;;;40.47;;
80425;SDS011;69766;51.476;5.704;2023-06-22T13:14:21;62.83;;;42.13;;
80425;SDS011;69766;51.476;5.704;2023-06-22T13:16:47;54.78;;;39.05;;
80425;SDS011;69766;51.476;5.704;2023-06-22T13:19:13;62.72;;;42.78;;
80425;SDS011;69766;51.476;5.704;2023-06-22T13:21:39;62.92;;;41.50;;
80425;SDS011;69766;51.476;5.704;2023-06-22T13:24:05;65.53;;;42.25;;
80425;SDS011;69766;51.476;5.704;2023-06-22T13:26:31;67.25;;;47.40;;
80425;SDS011;69766;51.476;5.704;2023-06-22T13:29:00;68.13;;;46.20;;
80425;SDS011;69766;51.476;5.704;2023-06-22T13:31:42;73.57;;;49.88;;
80425;SDS011;69766;51.476;5.704;2023-06-22T13:34:53;82.07;;;52.17;;
80425;SDS011;69766;51.476;5.704;2023-06-22T13:37:39;69.15;;;46.55;;
80425;SDS011;69766;51.476;5.704;2023-06-22T13:43:11;75.65;;;49.03;;
80425;SDS011;69766;51.476;5.704;2023-06-22T13:45:43;63.28;;;43.92;;
80425;SDS011;69766;51.476;5.704;2023-06-22T13:48:09;80.65;;;50.55;;
80425;SDS011;69766;51.476;5.704;2023-06-22T13:50:40;68.80;;;44.35;;
80425;SDS011;69766;51.476;5.704;2023-06-22T13:53:06;90.60;;;54.03;;
80425;SDS011;69766;51.476;5.704;2023-06-22T13:55:32;72.78;;;50.55;;
80425;SDS011;69766;51.476;5.704;2023-06-22T13:57:58;80.60;;;50.45;;
80425;SDS011;69766;51.476;5.704;2023-06-22T14:00:34;85.38;;;53.17;;
80425;SDS011;69766;51.476;5.704;2023-06-22T14:03:08;80.55;;;52.75;;
80425;SDS011;69766;51.476;5.704;2023-06-22T14:05:36;76.43;;;51.53;;
80425;SDS011;69766;51.476;5.704;2023-06-22T14:08:05;78.28;;;50.25;;
80425;SDS011;69766;51.476;5.704;2023-06-22T14:10:30;75.53;;;49.90;;
80425;SDS011;69766;51.476;5.704;2023-06-22T14:12:56;83.45;;;54.10;;
80425;SDS011;69766;51.476;5.704;2023-06-22T14:15:22;91.03;;;54.60;;
80425;SDS011;69766;51.476;5.704;2023-06-22T14:17:47;75.88;;;52.72;;
80425;SDS011;69766;51.476;5.704;2023-06-22T14:20:13;79.75;;;52.15;;
80425;SDS011;69766;51.476;5.704;2023-06-22T14:22:42;67.88;;;46.88;;
80425;SDS011;69766;51.476;5.704;2023-06-22T14:25:10;71.75;;;48.75;;
80425;SDS011;69766;51.476;5.704;2023-06-22T14:27:39;77.68;;;52.42;;
80425;SDS011;69766;51.476;5.704;2023-06-22T14:30:07;69.75;;;48.88;;
80425;SDS011;69766;51.476;5.704;2023-06-22T14:32:36;70.00;;;49.08;;
80425;SDS011;69766;51.476;5.704;2023-06-22T14:35:11;66.95;;;48.50;;
80425;SDS011;69766;51.476;5.704;2023-06-22T14:37:51;82.82;;;54.75;;
80425;SDS011;69766;51.476;5.704;2023-06-22T14:40:37;68.22;;;45.53;;
80425;SDS011;69766;51.476;5.704;2023-06-22T14:43:12;70.63;;;45.45;;
80425;SDS011;69766;51.476;5.704;2023-06-22T14:45:41;77.43;;;51.08;;
80425;SDS011;69766;51.476;5.704;2023-06-22T14:51:01;79.60;;;51.67;;
80425;SDS011;69766;51.476;5.704;2023-06-22T14:53:30;86.72;;;55.15;;